Time;durP1;ratioP1;P1;durP2;ratioP2;P2;SDS_P1;SDS_P2;PMS_P1;PMS_P2;Temp;Humidity;BMP_temperature;BMP_pressure;BME280_temperature;BME280_humidity;BME280_pressure;Samples;Min_cycle;Max_cycle;Signal;HPM_P1;HPM_P2
2022/06/04 00:02:05;;;;;;;5.35;5.00;;;;;;;;;;5071054;28;20513;-83
2022/06/04 00:04:31;;;;;;;5.75;5.25;;;;;;;;;;5072130;28;20387;-83
2022/06/04 00:06:57;;;;;;;5.43;5.05;;;;;;;;;;5070641;28;20372;-83
2022/06/04 00:09:27;;;;;;;5.93;5.43;;;;;;;;;;5061284;28;20379;-83
2022/06/04 00:17:25;;;;;;;5.90;5.50;;;;;;;;;;5037193;28;20386;-83
2022/06/04 00:19:51;;;;;;;5.88;5.35;;;;;;;;;;5062937;28;20467;-83
2022/06/04 00:22:17;;;;;;;5.82;5.43;;;;;;;;;;5072467;28;20956;-83
2022/06/04 00:24:44;;;;;;;6.18;5.60;;;;;;;;;;5072697;28;20437;-83
2022/06/04 00:27:14;;;;;;;6.22;5.60;;;;;;;;;;5072859;28;20388;-83
2022/06/04 00:29:40;;;;;;;6.03;5.60;;;;;;;;;;5072514;28;20380;-83
2022/06/04 00:32:06;;;;;;;6.07;5.55;;;;;;;;;;5072577;28;20402;-83
2022/06/04 00:34:33;;;;;;;6.05;5.55;;;;;;;;;;5060109;28;20417;-83
2022/06/04 00:36:59;;;;;;;6.40;5.80;;;;;;;;;;5064216;28;20778;-83
2022/06/04 00:39:25;;;;;;;5.78;5.38;;;;;;;;;;5072374;28;20383;-83
2022/06/04 00:42:03;;;;;;;5.93;5.47;;;;;;;;;;5065734;28;20933;-83
2022/06/04 00:44:32;;;;;;;5.57;5.22;;;;;;;;;;5069528;28;20833;-82
2022/06/04 00:47:13;;;;;;;6.28;5.78;;;;;;;;;;5066016;28;20733;-83
2022/06/04 00:49:39;;;;;;;6.13;5.55;;;;;;;;;;5072245;28;20904;-83
2022/06/04 00:52:08;;;;;;;6.20;5.78;;;;;;;;;;5072213;28;20846;-83
2022/06/04 00:54:34;;;;;;;6.22;5.55;;;;;;;;;;5058067;28;20378;-83
2022/06/04 00:57:09;;;;;;;6.32;5.53;;;;;;;;;;5070455;28;20466;-83
2022/06/04 00:59:35;;;;;;;7.47;6.78;;;;;;;;;;5072188;28;20395;-83
2022/06/04 01:02:13;;;;;;;6.03;5.55;;;;;;;;;;5071957;28;20407;-83
2022/06/04 01:04:58;;;;;;;6.20;5.72;;;;;;;;;;5072273;28;20377;-83
2022/06/04 01:07:52;;;;;;;6.57;6.07;;;;;;;;;;5072054;28;20441;-83
2022/06/04 01:10:18;;;;;;;6.68;6.13;;;;;;;;;;5068733;28;20380;-83
2022/06/04 01:12:57;;;;;;;6.32;5.75;;;;;;;;;;5071990;28;20443;-83
2022/06/04 01:15:30;;;;;;;6.20;5.80;;;;;;;;;;5075355;28;20482;-83
2022/06/04 01:18:11;;;;;;;6.35;5.85;;;;;;;;;;5068990;28;20777;-83
2022/06/04 01:21:06;;;;;;;6.22;5.72;;;;;;;;;;5075431;28;20375;-83
2022/06/04 01:23:48;;;;;;;6.13;5.63;;;;;;;;;;5057358;28;20398;-83
2022/06/04 01:26:14;;;;;;;6.07;5.68;;;;;;;;;;5078643;28;20360;-83
2022/06/04 01:28:47;;;;;;;6.45;5.85;;;;;;;;;;5078577;28;20459;-83
2022/06/04 01:31:16;;;;;;;6.20;5.70;;;;;;;;;;5078566;28;20868;-83
2022/06/04 01:33:46;;;;;;;6.75;6.20;;;;;;;;;;5078519;28;20387;-83
2022/06/04 01:36:18;;;;;;;6.32;5.82;;;;;;;;;;5078570;28;20367;-83
2022/06/04 01:38:55;;;;;;;6.50;6.00;;;;;;;;;;5078768;28;20463;-83
2022/06/04 01:41:24;;;;;;;6.22;5.82;;;;;;;;;;5078418;28;20407;-83
2022/06/04 01:43:52;;;;;;;6.38;5.78;;;;;;;;;;5062219;28;20379;-83
2022/06/04 01:46:27;;;;;;;6.07;5.57;;;;;;;;;;5078413;28;20411;-83
2022/06/04 01:48:55;;;;;;;6.32;5.82;;;;;;;;;;5078410;28;20925;-83
2022/06/04 01:51:23;;;;;;;6.32;5.80;;;;;;;;;;5078235;28;20391;-83
2022/06/04 01:53:51;;;;;;;6.60;6.00;;;;;;;;;;5078479;28;20884;-83
2022/06/04 01:56:20;;;;;;;6.03;5.57;;;;;;;;;;5072147;28;20409;-83
2022/06/04 01:58:52;;;;;;;5.93;5.43;;;;;;;;;;5075983;28;20434;-83
2022/06/04 02:01:20;;;;;;;5.88;5.28;;;;;;;;;;5078443;28;20411;-82
2022/06/04 02:04:06;;;;;;;6.22;5.63;;;;;;;;;;5053426;28;20416;-83
2022/06/04 02:07:29;;;;;;;6.53;6.03;;;;;;;;;;5078059;28;20375;-83
2022/06/04 02:09:35;;;;;;;5.85;5.45;;;;;;;;;;5078028;28;20384;-84
2022/06/04 02:12:03;;;;;;;5.70;5.30;;;;;;;;;;5065468;28;20480;-83
2022/06/04 02:14:29;;;;;;;5.70;5.30;;;;;;;;;;5064992;28;20382;-83
2022/06/04 02:16:59;;;;;;;5.97;5.57;;;;;;;;;;5077774;28;20380;-84
2022/06/04 02:19:25;;;;;;;5.47;5.10;;;;;;;;;;5078411;28;20748;-84
2022/06/04 02:21:51;;;;;;;5.60;5.20;;;;;;;;;;5066402;28;20409;-83
2022/06/04 02:24:17;;;;;;;6.10;5.60;;;;;;;;;;5048871;28;20958;-83
2022/06/04 02:26:44;;;;;;;6.30;5.85;;;;;;;;;;5052132;28;20444;-83
2022/06/04 02:29:10;;;;;;;6.40;5.90;;;;;;;;;;5070087;28;20372;-83
2022/06/04 02:31:42;;;;;;;6.50;5.90;;;;;;;;;;5059325;28;20385;-83
2022/06/04 02:34:16;;;;;;;6.03;5.43;;;;;;;;;;5068811;28;20384;-83
2022/06/04 02:36:47;;;;;;;5.57;5.20;;;;;;;;;;5064235;28;20744;-83
2022/06/04 02:39:20;;;;;;;5.53;5.03;;;;;;;;;;5073799;28;20376;-83
2022/06/04 02:41:49;;;;;;;5.35;4.95;;;;;;;;;;5063388;28;20977;-83
2022/06/04 02:44:27;;;;;;;5.28;4.88;;;;;;;;;;5069933;28;20386;-83
2022/06/04 02:46:57;;;;;;;5.65;5.20;;;;;;;;;;5074580;28;20382;-83
2022/06/04 02:49:30;;;;;;;6.40;5.90;;;;;;;;;;5058311;28;20439;-83
2022/06/04 02:51:57;;;;;;;9.93;9.03;;;;;;;;;;5074346;28;20405;-84
2022/06/04 02:54:29;;;;;;;9.13;8.45;;;;;;;;;;5074150;28;20460;-83
2022/06/04 02:56:56;;;;;;;7.47;6.97;;;;;;;;;;5074262;28;20380;-83
2022/06/04 02:59:22;;;;;;;8.40;7.60;;;;;;;;;;5074059;28;20411;-83
2022/06/04 03:01:51;;;;;;;8.30;7.60;;;;;;;;;;5056117;28;20475;-83
2022/06/04 03:04:17;;;;;;;8.40;7.70;;;;;;;;;;5062467;28;20785;-83
2022/06/04 03:06:43;;;;;;;7.78;7.07;;;;;;;;;;5074135;28;20418;-83
2022/06/04 03:09:11;;;;;;;8.95;8.27;;;;;;;;;;5074093;28;20372;-83
2022/06/04 03:11:45;;;;;;;10.75;9.90;;;;;;;;;;5056553;28;20388;-83
2022/06/04 03:14:12;;;;;;;12.50;11.30;;;;;;;;;;5073936;28;20380;-83
2022/06/04 03:16:39;;;;;;;11.35;10.43;;;;;;;;;;5061804;28;20805;-83
2022/06/04 03:19:07;;;;;;;10.43;9.50;;;;;;;;;;5072048;28;20437;-83
2022/06/04 03:21:33;;;;;;;8.50;7.85;;;;;;;;;;5062277;28;20538;-84
2022/06/04 03:23:59;;;;;;;7.30;6.68;;;;;;;;;;5049347;28;20523;-83
2022/06/04 03:26:25;;;;;;;7.10;6.40;;;;;;;;;;5052076;28;20472;-84
2022/06/04 03:28:51;;;;;;;7.40;6.80;;;;;;;;;;5058370;28;20892;-85
2022/06/04 03:31:17;;;;;;;7.00;6.50;;;;;;;;;;5072306;28;20391;-85
2022/06/04 03:33:43;;;;;;;7.07;6.47;;;;;;;;;;5071486;28;20471;-85
2022/06/04 03:36:10;;;;;;;7.50;6.80;;;;;;;;;;5071668;28;20800;-85
2022/06/04 03:38:36;;;;;;;11.93;10.75;;;;;;;;;;5071435;28;20372;-85
2022/06/04 03:41:02;;;;;;;11.27;10.27;;;;;;;;;;5048301;28;20414;-85
2022/06/04 03:43:29;;;;;;;11.48;10.57;;;;;;;;;;5053137;28;20378;-85
2022/06/04 03:45:55;;;;;;;10.75;9.80;;;;;;;;;;5051311;28;20465;-85
2022/06/04 03:48:22;;;;;;;10.25;9.25;;;;;;;;;;5057315;28;20478;-85
2022/06/04 03:50:48;;;;;;;10.50;9.70;;;;;;;;;;5072300;28;20425;-85
2022/06/04 03:53:14;;;;;;;10.25;9.35;;;;;;;;;;5073098;28;20407;-85
2022/06/04 03:55:40;;;;;;;10.43;9.63;;;;;;;;;;5072223;28;20407;-85
2022/06/04 03:58:06;;;;;;;11.65;10.65;;;;;;;;;;5050984;28;20391;-85
2022/06/04 04:00:37;;;;;;;11.30;10.40;;;;;;;;;;5044201;28;20395;-85
2022/06/04 04:03:16;;;;;;;11.95;10.85;;;;;;;;;;5072826;28;20403;-85
2022/06/04 04:05:50;;;;;;;12.13;11.13;;;;;;;;;;5073054;28;20376;-85
2022/06/04 04:08:16;;;;;;;12.27;11.18;;;;;;;;;;5073130;28;20372;-86
2022/06/04 04:10:44;;;;;;;10.32;9.50;;;;;;;;;;5072879;28;20448;-85
2022/06/04 04:13:11;;;;;;;11.18;10.07;;;;;;;;;;5072602;28;20380;-85
2022/06/04 04:15:38;;;;;;;10.87;9.97;;;;;;;;;;5058818;28;20394;-85
2022/06/04 04:18:05;;;;;;;10.85;9.85;;;;;;;;;;5072836;28;20890;-85
2022/06/04 04:20:32;;;;;;;11.30;10.30;;;;;;;;;;5072693;28;20383;-85
2022/06/04 04:22:58;;;;;;;11.77;10.88;;;;;;;;;;5072703;28;20403;-85
2022/06/04 04:25:25;;;;;;;11.35;10.45;;;;;;;;;;5072890;28;20860;-86
2022/06/04 04:27:52;;;;;;;11.48;10.43;;;;;;;;;;5072625;28;20415;-85
2022/06/04 04:30:19;;;;;;;11.05;10.00;;;;;;;;;;5072543;28;20387;-85
2022/06/04 04:32:45;;;;;;;10.18;9.00;;;;;;;;;;5072350;28;20386;-86
2022/06/04 04:35:16;;;;;;;9.85;8.95;;;;;;;;;;5072529;28;20376;-85
2022/06/04 04:37:42;;;;;;;8.00;7.20;;;;;;;;;;5072459;28;20403;-85
2022/06/04 04:40:09;;;;;;;8.18;7.47;;;;;;;;;;5053888;28;20869;-85
2022/06/04 04:42:35;;;;;;;6.80;5.50;;;;;;;;;;5053028;28;20416;-85
2022/06/04 04:45:02;;;;;;;4.82;4.43;;;;;;;;;;5072413;28;20403;-86
2022/06/04 04:47:28;;;;;;;4.78;4.25;;;;;;;;;;5072388;28;20395;-83
2022/06/04 04:49:54;;;;;;;6.13;3.53;;;;;;;;;;5066330;28;20876;-87
2022/06/04 04:52:20;;;;;;;5.97;3.13;;;;;;;;;;5051958;28;20377;-87
2022/06/04 04:54:46;;;;;;;3.20;2.70;;;;;;;;;;5070112;28;20387;-87
2022/06/04 04:57:12;;;;;;;3.28;2.95;;;;;;;;;;5072467;28;20718;-86
2022/06/04 04:59:38;;;;;;;2.75;2.22;;;;;;;;;;5058237;28;20389;-87
2022/06/04 05:02:04;;;;;;;3.60;2.63;;;;;;;;;;5070155;28;20448;-87
2022/06/04 05:04:30;;;;;;;3.83;2.22;;;;;;;;;;5072188;28;20467;-88
2022/06/04 05:06:56;;;;;;;5.30;2.43;;;;;;;;;;5076015;28;20383;-86
2022/06/04 05:09:22;;;;;;;3.47;2.20;;;;;;;;;;5063664;28;20415;-87
2022/06/04 05:11:49;;;;;;;3.22;2.10;;;;;;;;;;5057970;28;20389;-85
2022/06/04 05:14:15;;;;;;;3.60;2.10;;;;;;;;;;5066158;28;20387;-86
2022/06/04 05:16:42;;;;;;;4.15;2.20;;;;;;;;;;5055884;28;20907;-86
2022/06/04 05:19:08;;;;;;;2.58;1.95;;;;;;;;;;5070562;28;20852;-85
2022/06/04 05:21:42;;;;;;;1.60;1.50;;;;;;;;;;5072162;28;20485;-86
2022/06/04 05:24:14;;;;;;;3.40;1.80;;;;;;;;;;5071914;28;20404;-87
2022/06/04 05:26:40;;;;;;;2.90;2.25;;;;;;;;;;5072007;28;20383;-86
2022/06/04 05:29:06;;;;;;;3.35;2.22;;;;;;;;;;5071834;28;20376;-86
2022/06/04 05:31:32;;;;;;;3.40;2.17;;;;;;;;;;5060305;28;20388;-86
2022/06/04 05:33:58;;;;;;;2.55;1.83;;;;;;;;;;5071833;28;20390;-86
2022/06/04 05:36:24;;;;;;;2.90;2.30;;;;;;;;;;5068588;28;20886;-86
2022/06/04 05:38:50;;;;;;;3.65;2.03;;;;;;;;;;5056277;28;20379;-87
2022/06/04 05:41:16;;;;;;;2.90;1.95;;;;;;;;;;5041577;28;20404;-89
2022/06/04 05:43:42;;;;;;;4.25;2.40;;;;;;;;;;5054845;28;20391;-90
2022/06/04 05:46:10;;;;;;;3.58;2.50;;;;;;;;;;5054867;28;20869;-87
2022/06/04 05:48:40;;;;;;;4.07;2.58;;;;;;;;;;5040825;28;20875;-88
2022/06/04 05:51:06;;;;;;;2.88;2.50;;;;;;;;;;5067352;28;20416;-88
2022/06/04 05:53:32;;;;;;;2.65;2.40;;;;;;;;;;5071720;28;20380;-87
2022/06/04 05:55:58;;;;;;;2.90;2.30;;;;;;;;;;5071638;28;20798;-87
2022/06/04 05:58:24;;;;;;;2.55;2.10;;;;;;;;;;5071512;28;20393;-89
2022/06/04 06:00:57;;;;;;;3.03;2.40;;;;;;;;;;5071554;28;20885;-88
2022/06/04 06:03:23;;;;;;;4.47;2.30;;;16.50;99.90;;;;;;5074637;28;20425;-85
2022/06/04 06:05:48;;;;;;;3.20;2.00;;;16.70;99.90;;;;;;5075544;28;20390;-85
2022/06/04 06:08:14;;;;;;;3.30;3.00;;;16.70;99.90;;;;;;5075352;28;20432;-85
2022/06/04 06:10:43;;;;;;;3.58;3.22;;;16.80;99.90;;;;;;5075327;28;20378;-85
2022/06/04 06:13:10;;;;;;;2.90;2.67;;;16.80;99.90;;;;;;5075185;28;20383;-85
2022/06/04 06:15:37;;;;;;;3.78;2.55;;;16.70;99.90;;;;;;5062784;28;20871;-86
2022/06/04 06:18:04;;;;;;;2.60;2.40;;;16.70;99.90;;;;;;5034178;28;20890;-85
2022/06/04 06:20:31;;;;;;;2.83;2.45;;;16.80;99.90;;;;;;5055236;28;20446;-85
2022/06/04 06:22:56;;;;;;;3.97;2.80;;;16.80;99.90;;;;;;5075085;28;20493;-85
2022/06/04 06:25:22;;;;;;;4.03;2.97;;;16.80;99.90;;;;;;5075006;28;20387;-85
2022/06/04 06:27:48;;;;;;;3.33;2.93;;;16.90;99.90;;;;;;5074868;28;20386;-85
2022/06/04 06:30:14;;;;;;;6.00;3.30;;;17.00;99.90;;;;;;5074741;28;20455;-85
2022/06/04 06:32:40;;;;;;;4.72;2.95;;;16.90;99.90;;;;;;5056696;28;20900;-85
2022/06/04 06:35:06;;;;;;;3.20;2.90;;;16.90;99.90;;;;;;5073770;28;20398;-85
2022/06/04 06:37:32;;;;;;;3.22;2.92;;;16.90;99.90;;;;;;5074689;28;20391;-85
2022/06/04 06:39:58;;;;;;;5.97;3.30;;;17.00;99.90;;;;;;5074790;28;20417;-85
2022/06/04 06:42:23;;;;;;;4.80;3.67;;;16.90;99.90;;;;;;5057791;28;20494;-85
2022/06/04 06:44:49;;;;;;;5.27;3.90;;;16.80;99.90;;;;;;5060142;28;20375;-85
2022/06/04 06:47:15;;;;;;;4.67;3.90;;;17.00;99.90;;;;;;5074587;28;20372;-86
2022/06/04 06:49:41;;;;;;;3.47;3.17;;;17.20;99.90;;;;;;5065734;28;20377;-85
2022/06/04 06:52:06;;;;;;;3.27;2.97;;;17.30;99.90;;;;;;5046770;28;20384;-86
2022/06/04 06:54:35;;;;;;;4.05;2.80;;;17.40;99.90;;;;;;5061850;28;20386;-86
2022/06/04 06:57:03;;;;;;;3.40;2.80;;;17.40;99.90;;;;;;5072948;28;20390;-86
2022/06/04 06:59:29;;;;;;;2.58;2.38;;;17.40;99.90;;;;;;5074321;28;20404;-86
2022/06/04 07:01:57;;;;;;;2.63;2.42;;;17.60;99.90;;;;;;5074151;28;20495;-86
2022/06/04 07:04:26;;;;;;;2.67;2.25;;;17.70;99.90;;;;;;5073916;28;21573;-87
2022/06/04 07:06:55;;;;;;;3.30;2.70;;;17.80;99.90;;;;;;5074260;28;20400;-86
2022/06/04 07:09:33;;;;;;;4.53;3.03;;;17.70;99.90;;;;;;5074498;28;20383;-86
2022/06/04 07:12:00;;;;;;;3.75;2.85;;;17.80;99.90;;;;;;5049713;28;20781;-87
2022/06/04 07:14:26;;;;;;;3.78;2.47;;;17.70;99.90;;;;;;5073577;28;20460;-86
2022/06/04 07:16:54;;;;;;;4.25;2.65;;;17.70;99.90;;;;;;5074034;28;20379;-86
2022/06/04 07:19:21;;;;;;;3.38;2.60;;;17.80;99.90;;;;;;5074223;28;20387;-86
2022/06/04 07:21:48;;;;;;;3.83;2.90;;;17.90;99.90;;;;;;5044944;28;20958;-86
2022/06/04 07:24:13;;;;;;;3.58;2.95;;;18.10;99.90;;;;;;5071636;28;20384;-87
2022/06/04 07:26:41;;;;;;;2.90;2.60;;;18.20;99.90;;;;;;5074134;28;20873;-85
2022/06/04 07:29:07;;;;;;;2.90;2.70;;;18.30;99.90;;;;;;5064174;28;20401;-86
2022/06/04 07:31:33;;;;;;;2.95;2.70;;;18.40;99.90;;;;;;5061502;28;20449;-85
2022/06/04 07:33:59;;;;;;;3.63;2.38;;;18.30;99.90;;;;;;5055979;28;20399;-85
2022/06/04 07:36:37;;;;;;;2.40;2.20;;;18.30;99.90;;;;;;5073869;28;20980;-86
2022/06/04 07:39:08;;;;;;;4.57;2.70;;;18.40;99.90;;;;;;5073615;28;20395;-85
2022/06/04 07:41:35;;;;;;;4.03;2.70;;;;;;;;;;5066656;28;20401;-86
2022/06/04 07:44:01;;;;;;;2.88;2.60;;;;;;;;;;5066646;28;20380;-86
2022/06/04 07:46:29;;;;;;;3.30;2.50;;;18.80;99.90;;;;;;5070806;28;20380;-85
2022/06/04 07:48:56;;;;;;;2.97;2.60;;;;;;;;;;5041721;28;20407;-87
2022/06/04 07:51:22;;;;;;;2.60;2.20;;;;;;;;;;5051051;28;20387;-86
2022/06/04 07:53:48;;;;;;;2.90;2.60;;;;;;;;;;5073325;28;20378;-86
2022/06/04 07:56:18;;;;;;;2.88;2.58;;;;;;;;;;5073264;28;20380;-86
2022/06/04 07:58:44;;;;;;;2.88;2.38;;;;;;;;;;5073027;28;20375;-86
2022/06/04 08:01:14;;;;;;;3.08;2.30;;;;;;;;;;5073102;28;20463;-86
2022/06/04 08:03:40;;;;;;;2.97;2.50;;;;;;;;;;5073076;28;20380;-87
2022/06/04 08:06:07;;;;;;;2.60;2.25;;;;;;;;;;5073240;28;20384;-86
2022/06/04 08:08:34;;;;;;;2.75;2.13;;;;;;;;;;5072929;28;20417;-86
2022/06/04 08:11:30;;;;;;;2.42;2.22;;;;;;;;;;5073071;28;20379;-86
2022/06/04 08:13:47;;;;;;;2.65;2.28;;;;;;;;;;5070943;28;20387;-86
2022/06/04 08:16:13;;;;;;;2.28;2.00;;;;;;;;;;5039666;28;20922;-86
2022/06/04 08:18:39;;;;;;;2.27;2.00;;;;;;;;;;5037931;28;20422;-86
2022/06/04 08:21:06;;;;;;;4.47;2.40;;;;;;;;;;5036120;28;20814;-87
2022/06/04 08:23:32;;;;;;;2.63;2.40;;;;;;;;;;5033582;28;20926;-86
2022/06/04 08:25:58;;;;;;;4.00;2.65;;;;;;;;;;5036252;28;20404;-87
2022/06/04 08:28:24;;;;;;;2.70;2.30;;;;;;;;;;5039302;28;20468;-87
2022/06/04 08:31:01;;;;;;;3.22;2.20;;;;;;;;;;5041437;28;20419;-88
2022/06/04 08:33:27;;;;;;;2.80;1.92;;;;;;;;;;5035561;28;20911;-87
2022/06/04 08:35:53;;;;;;;2.13;1.93;;;;;;;;;;5048446;28;20412;-87
2022/06/04 08:38:19;;;;;;;2.47;1.80;;;;;;;;;;5051489;28;20720;-87
2022/06/04 08:40:53;;;;;;;1.98;1.83;;;;;;;;;;5041512;28;20382;-87
2022/06/04 08:43:31;;;;;;;3.65;1.80;;;;;;;;;;5036848;28;20418;-87
2022/06/04 08:45:58;;;;;;;2.92;1.70;;;;;;;;;;5040137;28;20402;-87
2022/06/04 08:48:29;;;;;;;3.00;2.40;;;;;;;;;;5037990;28;20389;-87
2022/06/04 08:50:55;;;;;;;2.35;1.67;;;;;;;;;;5044161;28;20377;-88
2022/06/04 08:53:24;;;;;;;3.47;1.92;;;;;;;;;;5047267;28;20391;-87
2022/06/04 08:58:58;;;;;;;2.70;1.90;;;;;;;;;;5071337;28;20390;-91
2022/06/04 09:01:42;;;;;;;2.50;2.30;;;;;;;;;;5059383;28;20894;-91
2022/06/04 09:04:31;;;;;;;2.97;2.20;;;;;;;;;;5056380;28;20466;-91
2022/06/04 09:07:03;;;;;;;2.92;2.63;;;;;;;;;;5072577;28;20375;-91
2022/06/04 09:09:33;;;;;;;3.77;2.40;;;;;;;;;;5072216;28;20390;-91
2022/06/04 09:12:18;;;;;;;2.23;1.40;;;;;;;;;;5072071;28;20737;-91
2022/06/04 09:14:49;;;;;;;2.80;2.10;;;;;;;;;;5072130;28;20459;-90
2022/06/04 09:17:16;;;;;;;2.40;1.85;;;;;;;;;;5072144;28;20470;-90
2022/06/04 09:19:47;;;;;;;3.45;2.10;;;;;;;;;;5068498;28;20381;-91
2022/06/04 09:22:21;;;;;;;2.10;1.85;;;;;;;;;;5049994;28;20510;-90
2022/06/04 09:24:47;;;;;;;2.97;1.90;;;;;;;;;;5072136;28;20378;-91
2022/06/04 09:27:13;;;;;;;2.33;2.10;;;;;;;;;;5071950;28;20383;-91
2022/06/04 09:29:57;;;;;;;3.72;2.90;;;;;;;;;;5072147;28;20438;-90
2022/06/04 09:32:26;;;;;;;3.28;2.63;;;;;;;;;;5070333;28;20463;-91
2022/06/04 09:34:54;;;;;;;3.00;2.38;;;;;;;;;;5060082;28;20998;-90
2022/06/04 09:37:20;;;;;;;3.67;2.50;;;;;;;;;;5061232;28;20738;-90
2022/06/04 09:39:48;;;;;;;3.65;2.53;;;;;;;;;;5069559;28;20385;-89
2022/06/04 09:42:14;;;;;;;3.75;2.42;;;;;;;;;;5054226;28;20407;-91
2022/06/04 09:44:57;;;;;;;5.07;3.30;;;;;;;;;;5074785;28;20737;-91
2022/06/04 09:47:30;;;;;;;6.10;4.18;;;;;;;;;;5076339;28;20372;-91
2022/06/04 09:50:00;;;;;;;6.75;4.15;;;;;;;;;;5076036;28;20384;-91
2022/06/04 09:52:30;;;;;;;7.22;5.07;;;;;;;;;;5076256;28;20452;-93
2022/06/04 09:54:58;;;;;;;4.93;4.18;;;;;;;;;;5056035;28;20387;-90
2022/06/04 09:57:29;;;;;;;4.77;3.63;;;;;;;;;;5062993;28;20380;-89
2022/06/04 09:59:57;;;;;;;4.70;3.30;;;;;;;;;;5075324;28;20562;-90
2022/06/04 10:02:23;;;;;;;3.97;1.97;;;;;;;;;;5068724;28;20409;-89
2022/06/04 10:04:50;;;;;;;3.05;2.17;;;;;;;;;;5068076;28;20829;-89
2022/06/04 10:07:22;;;;;;;2.45;2.13;;;;;;;;;;5075331;28;20375;-90
2022/06/04 10:09:58;;;;;;;3.50;2.13;;;;;;;;;;5075348;28;20732;-91
2022/06/04 10:13:42;;;;;;;3.30;2.47;;;;;;;;;;5075147;28;20418;-91
2022/06/04 10:15:40;;;;;;;3.80;3.05;;;;;;;;;;5074926;28;20398;-89
2022/06/04 10:18:25;;;;;;;3.60;2.70;;;;;;;;;;5076396;28;20384;-90
2022/06/04 10:21:02;;;;;;;3.38;2.20;;;;;;;;;;5057087;28;20384;-90
2022/06/04 10:23:30;;;;;;;3.03;2.00;;;;;;;;;;5056999;28;20896;-90
2022/06/04 10:25:59;;;;;;;5.18;2.50;;;;;;;;;;5060919;28;20399;-90
2022/06/04 10:28:34;;;;;;;3.63;2.30;;;;;;;;;;5057336;28;20526;-89
2022/06/04 10:31:08;;;;;;;3.40;1.95;;;;;;;;;;5074879;28;20853;-90
2022/06/04 10:33:57;;;;;;;3.60;1.90;;;;;;;;;;5074852;28;20380;-90
2022/06/04 10:36:29;;;;;;;3.40;2.35;;;;;;;;;;5074847;28;20375;-89
2022/06/04 10:39:19;;;;;;;3.53;2.35;;;;;;;;;;5075000;28;20380;-89
2022/06/04 10:41:57;;;;;;;4.05;2.50;;;;;;;;;;5050648;28;20407;-89
2022/06/04 10:44:26;;;;;;;2.53;2.00;;;;;;;;;;5059348;28;20434;-88
2022/06/04 10:47:02;;;;;;;5.30;2.50;;;;;;;;;;5054015;28;20575;-89
2022/06/04 10:49:28;;;;;;;3.78;2.40;;;;;;;;;;5038598;28;20735;-89
2022/06/04 10:52:00;;;;;;;2.92;1.60;;;;;;;;;;5074526;28;20394;-89
2022/06/04 10:54:41;;;;;;;2.75;1.30;;;;;;;;;;5074665;28;20391;-90
2022/06/04 10:57:21;;;;;;;2.35;1.50;;;;;;;;;;5061185;28;20375;-89
2022/06/04 11:00:01;;;;;;;1.40;1.20;;;;;;;;;;5061172;28;20397;-90
2022/06/04 11:02:37;;;;;;;2.30;1.20;;;;;;;;;;5048830;28;20399;-89
2022/06/04 11:05:06;;;;;;;2.30;1.10;;;;;;;;;;5074321;28;20445;-90
2022/06/04 11:07:35;;;;;;;2.60;1.08;;;;;;;;;;5074302;28;20372;-88
2022/06/04 11:10:04;;;;;;;1.57;1.13;;;;;;;;;;5070374;28;20376;-89
2022/06/04 11:12:40;;;;;;;2.22;1.05;;;;;;;;;;5059934;28;20372;-90
2022/06/04 11:15:26;;;;;;;1.63;1.02;;;;;;;;;;5059529;28;20464;-89
2022/06/04 11:17:57;;;;;;;2.03;1.00;;;;;;;;;;5050198;28;20403;-91
2022/06/04 11:20:27;;;;;;;1.10;0.70;;;;;;;;;;5056877;28;20711;-91
2022/06/04 11:23:07;;;;;;;1.80;0.80;;;;;;;;;;5073983;28;20434;-89
2022/06/04 11:25:35;;;;;;;4.05;1.00;;;;;;;;;;5073875;28;20379;-90
2022/06/04 11:28:06;;;;;;;1.80;0.90;;;;;;;;;;5073962;28;20375;-90
2022/06/04 11:30:44;;;;;;;2.45;0.70;;;;;;;;;;5073812;28;20376;-89
2022/06/04 11:33:22;;;;;;;3.00;1.00;;;;;;;;;;5073731;28;20375;-90
2022/06/04 11:35:59;;;;;;;3.35;1.02;;;;;;;;;;5071980;28;20394;-88
2022/06/04 11:38:31;;;;;;;1.55;0.80;;;;;;;;;;5053775;28;20460;-89
2022/06/04 11:41:15;;;;;;;2.38;1.00;;;;;;;;;;5069777;28;20384;-89
2022/06/04 11:43:44;;;;;;;4.80;1.17;;;;;;;;;;5046354;28;20469;-89
2022/06/04 11:46:24;;;;;;;1.85;1.00;;;;;;;;;;5038649;28;20376;-89
2022/06/04 11:49:13;;;;;;;2.08;0.88;;;;;;;;;;5074193;28;20386;-89
2022/06/04 11:51:40;;;;;;;1.50;0.73;;;;;;;;;;5046679;28;20376;-89
2022/06/04 11:54:25;;;;;;;2.63;0.98;;;;;;;;;;5060657;28;20374;-89
2022/06/04 11:57:10;;;;;;;1.55;0.82;;;;;;;;;;5067632;28;20421;-89
2022/06/04 11:59:51;;;;;;;3.30;1.00;;;;;;;;;;5073112;28;20896;-88
2022/06/04 12:02:24;;;;;;;3.40;1.15;;;;;;;;;;5055103;28;20411;-90
2022/06/04 12:05:10;;;;;;;2.55;0.90;;;;;;;;;;5073191;28;20383;-89
2022/06/04 12:07:41;;;;;;;1.67;0.90;;;;;;;;;;5048266;28;20364;-89
2022/06/04 12:10:18;;;;;;;2.60;1.10;;;;;;;;;;5073022;28;20907;-89
2022/06/04 12:12:44;;;;;;;2.38;1.10;;;;;;;;;;5073104;28;20386;-90
2022/06/04 12:15:13;;;;;;;5.50;1.05;;;;;;;;;;5072978;28;20849;-89
2022/06/04 12:17:47;;;;;;;3.10;1.17;;;;;;;;;;5072958;28;20394;-89
2022/06/04 12:26:18;;;;;;;2.50;1.10;;;;;;;;;;5073012;28;20901;-91
2022/06/04 12:28:44;;;;;;;1.92;1.02;;;;;;;;;;5072852;28;20375;-89
2022/06/04 12:31:10;;;;;;;3.47;1.20;;;;;;;;;;5072654;28;20383;-89
2022/06/04 12:33:39;;;;;;;2.90;1.40;;;;;;;;;;5072607;28;20379;-90
2022/06/04 12:36:07;;;;;;;2.60;1.30;;;;;;;;;;5072683;28;20375;-90
2022/06/04 12:38:34;;;;;;;2.75;1.30;;;;;;;;;;5052174;28;20467;-89
2022/06/04 12:41:09;;;;;;;3.55;1.10;;;;;;;;;;5054923;28;20378;-89
2022/06/04 12:43:37;;;;;;;2.88;1.40;;;;;;;;;;5037941;28;20388;-89
2022/06/04 12:46:21;;;;;;;3.85;1.38;;;;;;;;;;5049421;28;20943;-89
2022/06/04 12:48:59;;;;;;;3.75;1.10;;;;;;;;;;5052736;28;20388;-89
2022/06/04 12:51:28;;;;;;;4.35;1.42;;;;;;;;;;5067659;28;20449;-89
2022/06/04 12:54:01;;;;;;;3.08;1.10;;;;;;;;;;5052251;28;20388;-88
2022/06/04 12:56:29;;;;;;;2.80;1.08;;;;;;;;;;5070220;28;20425;-90
2022/06/04 12:58:57;;;;;;;3.72;1.38;;;;;;;;;;5066116;28;20392;-89
2022/06/04 13:01:34;;;;;;;3.22;1.30;;;;;;;;;;5064528;28;20384;-89
2022/06/04 13:04:06;;;;;;;4.90;1.00;;;;;;;;;;5061959;28;20469;-89
2022/06/04 13:06:32;;;;;;;3.57;1.53;;;;;;;;;;5072329;28;20363;-89
2022/06/04 13:09:17;;;;;;;4.10;1.53;;;;;;;;;;5072106;28;20459;-89
2022/06/04 13:11:43;;;;;;;3.45;1.27;;;;;;;;;;5063291;28;20383;-88
2022/06/04 13:14:15;;;;;;;4.28;1.17;;;;;;;;;;5072098;28;20402;-88
2022/06/04 13:16:58;;;;;;;3.33;1.20;;;;;;;;;;5072357;28;20387;-89
2022/06/04 13:19:39;;;;;;;2.25;1.13;;;;;;;;;;5072090;28;20380;-89
2022/06/04 13:22:10;;;;;;;2.85;1.13;;;;;;;;;;5053816;28;20416;-86
2022/06/04 13:24:37;;;;;;;4.13;1.10;;;;;;;;;;5072169;28;20378;-86
2022/06/04 13:27:10;;;;;;;3.70;1.52;;;;;;;;;;5072043;28;20468;-86
2022/06/04 13:29:37;;;;;;;3.90;1.40;;;;;;;;;;5071997;28;20376;-86
2022/06/04 13:32:10;;;;;;;3.57;1.40;;;;;;;;;;5072377;28;20850;-86
2022/06/04 13:34:36;;;;;;;2.95;1.20;;;;;;;;;;5072294;28;20437;-85
2022/06/04 13:37:06;;;;;;;3.35;1.20;;;;;;;;;;5071955;28;20928;-86
2022/06/04 13:39:34;;;;;;;3.35;1.23;;;;;;;;;;5072108;28;20585;-86
2022/06/04 13:42:02;;;;;;;2.83;1.45;;;;;;;;;;5043948;28;20410;-85
2022/06/04 13:44:28;;;;;;;2.65;1.23;;;;;;;;;;5065968;28;20429;-88
2022/06/04 13:46:54;;;;;;;5.97;1.40;;;;;;;;;;5071839;28;20380;-85
2022/06/04 13:49:23;;;;;;;4.20;1.50;;;;;;;;;;5070653;28;20372;-88
2022/06/04 13:51:49;;;;;;;2.35;1.10;;;;;;;;;;5059239;28;20438;-89
2022/06/04 13:54:29;;;;;;;4.35;1.80;;;;;;;;;;5071819;28;20471;-88
2022/06/04 13:56:57;;;;;;;2.20;1.07;;;;;;;;;;5071692;28;20378;-88
2022/06/04 13:59:38;;;;;;;2.85;1.30;;;;;;;;;;5071648;28;20395;-88
2022/06/04 14:02:09;;;;;;;3.17;1.23;;;;;;;;;;5071492;28;20435;-87
2022/06/04 14:07:30;;;;;;;3.83;1.30;;;;;;;;;;5071660;28;20370;-88
2022/06/04 14:09:57;;;;;;;4.63;1.55;;;;;;;;;;5071591;28;20384;-86
2022/06/04 14:12:22;;;;;;;4.20;1.33;;;;;;;;;;5071467;28;20380;-85
2022/06/04 14:15:13;;;;;;;2.60;1.38;;;;;;;;;;5071563;28;20475;-87
2022/06/04 14:17:58;;;;;;;3.53;1.40;;;;;;;;;;5071958;28;20371;-85
2022/06/04 14:20:34;;;;;;;2.90;1.40;;;;;;;;;;5071532;28;20394;-85
2022/06/04 14:23:04;;;;;;;3.97;1.33;;;;;;;;;;5054376;28;20396;-85
2022/06/04 14:25:42;;;;;;;2.67;1.30;;;;;;;;;;5075069;28;20400;-85
2022/06/04 14:28:40;;;;;;;2.60;1.52;;;;;;;;;;5075066;28;20379;-85
2022/06/04 14:31:32;;;;;;;4.00;1.33;;;;;;;;;;5020110;28;20404;-85
2022/06/04 14:34:00;;;;;;;3.10;1.48;;;;;;;;;;5061061;28;20427;-84
2022/06/04 14:36:27;;;;;;;2.97;1.40;;;;;;;;;;5062000;28;20380;-84
2022/06/04 14:38:54;;;;;;;4.83;1.50;;;;;;;;;;5074962;28;20372;-85
2022/06/04 14:41:19;;;;;;;2.90;1.45;;;;;;;;;;5074670;28;20376;-84
2022/06/04 14:43:48;;;;;;;3.70;1.40;;;;;;;;;;5056925;28;20918;-85
2022/06/04 14:46:41;;;;;;;3.60;1.40;;;;;;;;;;5053392;28;20408;-84
2022/06/04 14:49:13;;;;;;;2.80;1.50;;;;;;;;;;5004522;28;20387;-84
2022/06/04 14:51:46;;;;;;;3.30;1.58;;;;;;;;;;5046785;28;20463;-84
2022/06/04 14:54:12;;;;;;;4.07;1.50;;;;;;;;;;5074596;28;20395;-84
2022/06/04 14:56:38;;;;;;;2.92;1.50;;;;;;;;;;5071314;28;20801;-84
2022/06/04 14:59:12;;;;;;;4.45;1.60;;;;;;;;;;5061697;28;20418;-84
2022/06/04 15:01:47;;;;;;;3.08;1.27;;;;;;;;;;5056270;28;20445;-84
2022/06/04 15:04:25;;;;;;;2.47;1.57;;;;;;;;;;5074546;28;20372;-84